Time;durP1;ratioP1;P1;durP2;ratioP2;P2;SDS_P1;SDS_P2;PMS_P1;PMS_P2;Temp;Humidity;BMP_temperature;BMP_pressure;BME280_temperature;BME280_humidity;BME280_pressure;Samples;Min_cycle;Max_cycle;Signal;HPM_P1;HPM_P2
2022/02/20 00:00:29;;;;;;;26.30;25.20;;;;;;;;;;6185281;23;20496;-77
2022/02/20 00:02:58;;;;;;;26.30;25.20;;;;;;;;;;6185404;23;20174;-77
2022/02/20 00:05:25;;;;;;;27.30;25.73;;;;;;;;;;6185828;23;20161;-77
2022/02/20 00:07:53;;;;;;;36.83;35.13;;;;;;;;;;6185150;23;20169;-77
2022/02/20 00:10:20;;;;;;;25.80;24.80;;;;;;;;;;6185533;23;20605;-77
2022/02/20 00:12:47;;;;;;;27.65;26.25;;;;;;;;;;6185283;23;20176;-77
2022/02/20 00:15:15;;;;;;;26.90;25.60;;;;;;;;;;6159167;23;20544;-77
2022/02/20 00:17:43;;;;;;;25.90;24.80;;;;;;;;;;6185419;23;20573;-77
2022/02/20 00:20:12;;;;;;;24.95;23.83;;;;;;;;;;6159416;23;20488;-77
2022/02/20 00:22:39;;;;;;;25.33;23.90;;;;;;;;;;6185085;23;20175;-77
2022/02/20 00:25:07;;;;;;;27.67;26.17;;;;;;;;;;6185461;23;20173;-77
2022/02/20 00:27:35;;;;;;;26.58;25.38;;;;;;;;;;6185418;23;20166;-77
2022/02/20 00:30:02;;;;;;;25.30;24.20;;;;;;;;;;6185087;23;20613;-77
2022/02/20 00:32:29;;;;;;;25.02;23.92;;;;;;;;;;6185300;23;20200;-77
2022/02/20 00:34:57;;;;;;;41.00;38.97;;;;;;;;;;6184459;23;20182;-78
2022/02/20 00:37:25;;;;;;;27.85;25.70;;;;;;;;;;6185256;23;20600;-78
2022/02/20 00:39:53;;;;;;;30.73;29.33;;;;;;;;;;6185238;23;20173;-78
2022/02/20 00:42:20;;;;;;;39.22;37.10;;;;;;;;;;6159442;23;20166;-78
2022/02/20 00:44:48;;;;;;;28.20;26.70;;;;;;;;;;6185515;23;20166;-78
2022/02/20 00:47:15;;;;;;;25.92;24.75;;;;;;;;;;6184974;23;20252;-78
2022/02/20 00:49:42;;;;;;;29.27;27.90;;;;;;;;;;6185380;23;20205;-78
2022/02/20 00:52:11;;;;;;;26.10;24.83;;;;;;;;;;6184867;23;20501;-78
2022/02/20 00:54:40;;;;;;;25.58;24.25;;;;;;;;;;6184701;23;20217;-77
2022/02/20 00:57:08;;;;;;;25.27;23.73;;;;;;;;;;6185195;23;20208;-77
2022/02/20 00:59:35;;;;;;;23.75;22.38;;;;;;;;;;6185190;23;20162;-77
2022/02/20 01:02:02;;;;;;;24.65;23.40;;;;;;;;;;6158983;23;20200;-77
2022/02/20 01:04:30;;;;;;;24.25;22.95;;;;;;;;;;6184734;23;20173;-77
2022/02/20 01:06:57;;;;;;;23.40;22.20;;;;;;;;;;6184897;23;20873;-77
2022/02/20 01:09:24;;;;;;;23.10;22.00;;;;;;;;;;6184789;23;20220;-77
2022/02/20 01:11:53;;;;;;;26.48;23.48;;;;;;;;;;6184639;23;20197;-77
2022/02/20 01:14:20;;;;;;;24.33;22.75;;;;;;;;;;6185231;23;20169;-76
2022/02/20 01:16:48;;;;;;;21.77;20.88;;;;;;;;;;6185273;23;20173;-76
2022/02/20 01:19:15;;;;;;;22.25;21.25;;;;;;;;;;6184784;23;20169;-77
2022/02/20 01:21:42;;;;;;;21.67;20.63;;;;;;;;;;6184798;23;20165;-76
2022/02/20 01:24:10;;;;;;;21.63;20.63;;;;;;;;;;6185349;23;20197;-77
2022/02/20 01:26:38;;;;;;;22.20;21.20;;;;;;;;;;6184287;23;20178;-77
2022/02/20 01:29:06;;;;;;;23.48;21.65;;;;;;;;;;6185229;23;20162;-77
2022/02/20 01:31:35;;;;;;;21.98;20.75;;;;;;;;;;6185925;23;20200;-77
2022/02/20 01:34:02;;;;;;;22.38;21.38;;;;;;;;;;6186921;23;20166;-77
2022/02/20 01:36:29;;;;;;;21.30;20.40;;;;;;;;;;6187321;23;20162;-77
2022/02/20 01:38:57;;;;;;;22.63;21.13;;;;;;;;;;6186572;23;20172;-77
2022/02/20 01:41:24;;;;;;;19.45;18.55;;;;;;;;;;6186734;23;20165;-76
2022/02/20 01:43:53;;;;;;;20.00;19.20;;;;;;;;;;6187235;23;20181;-76
2022/02/20 01:46:22;;;;;;;21.77;19.83;;;;;;;;;;6186607;23;20224;-76
2022/02/20 01:48:50;;;;;;;19.42;18.45;;;;;;;;;;6186680;23;20185;-76
2022/02/20 01:51:17;;;;;;;22.60;20.90;;;;;;;;;;6186443;23;20189;-76
2022/02/20 01:53:45;;;;;;;20.08;18.95;;;;;;;;;;6186856;23;20205;-76
2022/02/20 01:56:13;;;;;;;22.05;20.50;;;;;;;;;;6186635;23;20200;-76
2022/02/20 01:58:43;;;;;;;20.75;19.55;;;;;;;;;;6186703;23;20166;-76
2022/02/20 02:01:10;;;;;;;20.65;19.25;;;;;;;;;;6187188;23;20172;-76
2022/02/20 02:03:39;;;;;;;20.05;18.88;;;;;;;;;;6160281;23;20228;-76
2022/02/20 02:06:06;;;;;;;19.00;18.00;;;;;;;;;;6186835;23;20162;-76
2022/02/20 02:08:35;;;;;;;19.25;17.88;;;;;;;;;;6160010;23;20687;-76
2022/02/20 02:11:02;;;;;;;19.05;17.83;;;;;;;;;;6186549;23;20216;-76
2022/02/20 02:13:30;;;;;;;19.35;17.90;;;;;;;;;;6186156;23;20165;-76
2022/02/20 02:15:57;;;;;;;18.63;17.73;;;;;;;;;;6186575;23;20165;-76
2022/02/20 02:18:24;;;;;;;19.77;18.48;;;;;;;;;;6186533;23;20172;-76
2022/02/20 02:20:53;;;;;;;18.50;17.35;;;;;;;;;;6186606;23;20170;-76
2022/02/20 02:23:22;;;;;;;19.48;17.85;;;;;;;;;;6186199;23;20636;-76
2022/02/20 02:25:50;;;;;;;19.25;17.65;;;;;;;;;;6186389;23;20609;-76
2022/02/20 02:28:17;;;;;;;19.10;16.92;;;;;;;;;;6186107;23;20608;-76
2022/02/20 02:30:45;;;;;;;18.55;17.27;;;;;;;;;;6186635;23;20161;-76
2022/02/20 02:33:12;;;;;;;17.60;16.67;;;;;;;;;;6186298;23;20251;-76
2022/02/20 02:35:39;;;;;;;15.90;15.20;;;;;;;;;;6186453;23;20168;-76
2022/02/20 02:38:07;;;;;;;16.73;15.65;;;;;;;;;;6185995;23;20177;-76
2022/02/20 02:40:35;;;;;;;18.38;16.90;;;;;;;;;;6186454;23;20169;-76
2022/02/20 02:43:03;;;;;;;17.40;16.48;;;;;;;;;;6185979;23;20169;-76
2022/02/20 02:45:30;;;;;;;18.77;17.02;;;;;;;;;;6185910;23;20195;-76
2022/02/20 02:47:58;;;;;;;17.95;16.70;;;;;;;;;;6160421;23;20212;-76
2022/02/20 02:50:25;;;;;;;16.80;15.88;;;;;;;;;;6186368;23;20173;-76
2022/02/20 02:52:52;;;;;;;18.25;17.00;;;;;;;;;;6185889;23;20194;-76
2022/02/20 02:55:19;;;;;;;16.58;15.65;;;;;;;;;;6185764;23;20206;-76
2022/02/20 02:57:48;;;;;;;18.38;16.65;;;;;;;;;;6185954;23;20166;-76
2022/02/20 03:00:16;;;;;;;17.85;16.65;;;;;;;;;;6186292;23;20162;-75
2022/02/20 03:02:44;;;;;;;18.90;17.10;;;;;;;;;;6186323;23;20216;-76
2022/02/20 03:05:11;;;;;;;34.08;16.80;;;;;;;;;;6185863;23;20170;-76
2022/02/20 03:07:39;;;;;;;16.05;15.15;;;;;;;;;;6186159;23;20181;-79
2022/02/20 03:10:07;;;;;;;17.05;16.23;;;;;;;;;;6186298;23;20204;-76
2022/02/20 03:12:34;;;;;;;16.50;15.43;;;;;;;;;;6159294;23;20510;-76
2022/02/20 03:15:03;;;;;;;17.00;15.98;;;;;;;;;;6159276;23;20181;-76
2022/02/20 03:17:31;;;;;;;16.95;16.05;;;;;;;;;;6185594;23;20161;-76
2022/02/20 03:19:58;;;;;;;16.83;15.90;;;;;;;;;;6186107;23;20173;-76
2022/02/20 03:22:25;;;;;;;17.65;16.58;;;;;;;;;;6185679;23;20608;-76
2022/02/20 03:24:53;;;;;;;16.85;15.98;;;;;;;;;;6185984;23;20181;-76
2022/02/20 03:27:20;;;;;;;16.20;15.32;;;;;;;;;;6185921;23;20161;-76
2022/02/20 03:29:47;;;;;;;16.77;15.88;;;;;;;;;;6185754;23;20166;-76
2022/02/20 03:32:16;;;;;;;17.92;16.50;;;;;;;;;;6185826;23;20213;-76
2022/02/20 03:34:43;;;;;;;16.40;15.60;;;;;;;;;;6186043;23;20166;-76
2022/02/20 03:37:11;;;;;;;17.10;16.30;;;;;;;;;;6185582;23;20608;-76
2022/02/20 03:39:38;;;;;;;18.25;16.90;;;;;;;;;;6185703;23;20174;-76
2022/02/20 03:42:06;;;;;;;17.40;16.48;;;;;;;;;;6185312;23;20169;-76
2022/02/20 03:44:33;;;;;;;17.02;16.02;;;;;;;;;;6185725;23;20274;-76
2022/02/20 03:47:00;;;;;;;18.52;17.33;;;;;;;;;;6185404;23;20229;-76
2022/02/20 03:49:29;;;;;;;17.35;16.33;;;;;;;;;;6185826;23;20178;-76
2022/02/20 03:51:56;;;;;;;18.00;16.80;;;;;;;;;;6186030;23;20193;-76
2022/02/20 03:54:23;;;;;;;17.92;17.02;;;;;;;;;;6185133;23;20205;-76
2022/02/20 03:56:51;;;;;;;15.50;14.80;;;;;;;;;;6185696;23;20170;-76
2022/02/20 03:59:18;;;;;;;17.42;16.63;;;;;;;;;;6185307;23;20175;-76
2022/02/20 04:01:45;;;;;;;17.33;16.05;;;;;;;;;;6159320;23;20170;-75
2022/02/20 04:04:13;;;;;;;16.05;15.35;;;;;;;;;;6185553;23;20165;-76
2022/02/20 04:06:42;;;;;;;19.02;17.30;;;;;;;;;;6185534;23;20162;-76
2022/02/20 04:09:11;;;;;;;16.00;15.20;;;;;;;;;;6185530;23;20220;-76
2022/02/20 04:11:39;;;;;;;17.55;16.50;;;;;;;;;;6158461;23;20181;-75
2022/02/20 04:14:06;;;;;;;17.00;15.75;;;;;;;;;;6185134;23;20173;-75
2022/02/20 04:16:34;;;;;;;16.33;15.52;;;;;;;;;;6185659;23;20166;-75
2022/02/20 04:19:01;;;;;;;16.98;16.08;;;;;;;;;;6158910;23;20616;-76
2022/02/20 04:21:29;;;;;;;16.63;15.82;;;;;;;;;;6185473;23;20174;-76
2022/02/20 04:23:57;;;;;;;17.08;16.30;;;;;;;;;;6185016;23;20169;-77
2022/02/20 04:26:25;;;;;;;16.73;15.75;;;;;;;;;;6185449;23;20462;-76
2022/02/20 04:28:53;;;;;;;18.20;16.95;;;;;;;;;;6185511;23;20169;-76
2022/02/20 04:31:21;;;;;;;16.30;15.50;;;;;;;;;;6185096;23;20162;-76
2022/02/20 04:33:48;;;;;;;15.45;14.85;;;;;;;;;;6185001;23;20201;-76
2022/02/20 04:36:16;;;;;;;15.98;15.27;;;;;;;;;;6185128;23;20165;-76
2022/02/20 04:38:43;;;;;;;16.73;15.93;;;;;;;;;;6185485;23;20267;-76
2022/02/20 04:41:12;;;;;;;16.13;15.43;;;;;;;;;;6158628;23;20178;-76
2022/02/20 04:43:39;;;;;;;17.40;16.50;;;;;;;;;;6185263;23;20256;-76
2022/02/20 04:46:06;;;;;;;16.35;15.65;;;;;;;;;;6185506;23;20275;-76
2022/02/20 04:48:34;;;;;;;16.88;16.08;;;;;;;;;;6184716;23;20173;-76
2022/02/20 04:51:01;;;;;;;16.88;15.40;;;;;;;;;;6185216;23;20237;-76
2022/02/20 04:53:29;;;;;;;17.38;16.45;;;;;;;;;;6184478;23;20235;-76
2022/02/20 04:55:56;;;;;;;16.33;15.52;;;;;;;;;;6185015;23;20245;-75
2022/02/20 04:58:25;;;;;;;16.60;15.80;;;;;;;;;;6184800;23;20645;-75
2022/02/20 05:00:52;;;;;;;18.23;17.13;;;;;;;;;;6184827;23;20631;-76
2022/02/20 05:03:20;;;;;;;15.75;15.05;;;;;;;;;;6184803;23;20173;-76
2022/02/20 05:05:47;;;;;;;16.23;15.52;;;;;;;;;;6185016;23;20852;-76
2022/02/20 05:08:14;;;;;;;16.35;15.50;;;;;;;;;;6187310;23;20165;-76
2022/02/20 05:10:42;;;;;;;15.48;14.75;;;;;;;;;;6187287;23;20162;-76
2022/02/20 05:13:09;;;;;;;17.02;16.02;;;;;;;;;;6186967;23;20200;-76
2022/02/20 05:15:38;;;;;;;15.80;15.20;;;;;;;;;;6187311;23;20173;-75
2022/02/20 05:18:06;;;;;;;15.50;14.80;;;;;;;;;;6187322;23;20184;-76
2022/02/20 05:20:33;;;;;;;16.65;15.85;;;;;;;;;;6187173;23;20488;-76
2022/02/20 05:23:01;;;;;;;16.35;15.55;;;;;;;;;;6187152;23;20162;-75
2022/02/20 05:25:28;;;;;;;16.67;15.77;;;;;;;;;;6187183;23;20166;-76
2022/02/20 05:27:55;;;;;;;16.30;15.50;;;;;;;;;;6187058;23;20168;-76
2022/02/20 05:30:23;;;;;;;16.52;15.65;;;;;;;;;;6186609;23;20235;-76
2022/02/20 05:32:51;;;;;;;15.60;14.90;;;;;;;;;;6186578;23;20190;-76
2022/02/20 05:35:19;;;;;;;16.10;15.30;;;;;;;;;;6187003;23;20170;-76
2022/02/20 05:37:47;;;;;;;17.52;16.27;;;;;;;;;;6186598;23;20165;-76
2022/02/20 05:40:16;;;;;;;17.25;16.35;;;;;;;;;;6186637;23;20165;-76
2022/02/20 05:42:43;;;;;;;16.98;16.08;;;;;;;;;;6186807;23;20177;-75
2022/02/20 05:45:11;;;;;;;18.25;17.25;;;;;;;;;;6161084;23;20162;-75
2022/02/20 05:47:38;;;;;;;18.10;17.00;;;;;;;;;;6186462;23;20396;-76
2022/02/20 05:50:09;;;;;;;17.80;16.67;;;;;;;;;;6186918;23;20166;-76
2022/02/20 05:52:37;;;;;;;18.45;16.20;;;;;;;;;;6160336;23;20267;-76
2022/02/20 05:55:05;;;;;;;17.08;15.95;;;;;;;;;;6186309;23;20256;-75
2022/02/20 05:57:42;;;;;;;18.33;17.10;;;;;;;;;;6186369;23;20172;-75
2022/02/20 06:00:10;;;;;;;19.63;18.20;;;;;;;;;;6186822;23;20231;-75
2022/02/20 06:02:38;;;;;;;18.75;17.50;;;;;;;;;;6187016;23;20244;-75
2022/02/20 06:05:05;;;;;;;19.05;17.95;;;;;;;;;;6186783;23;20162;-75
2022/02/20 06:07:34;;;;;;;16.30;15.40;;;;;;;;;;6186888;23;20162;-76
2022/02/20 06:10:02;;;;;;;18.67;17.65;;;;;;;;;;6186403;23;20197;-76
2022/02/20 06:12:29;;;;;;;18.45;17.42;;;;;;;;;;6186115;23;20201;-75
2022/02/20 06:14:56;;;;;;;19.40;17.98;;;;;;;;;;6186431;23;20166;-76
2022/02/20 06:17:24;;;;;;;19.33;18.13;;;;;;;;;;6186083;23;20166;-75
2022/02/20 06:19:51;;;;;;;19.70;17.98;;;;;;;;;;6186273;23;20165;-76
2022/02/20 06:22:19;;;;;;;19.05;18.05;;;;;;;;;;6135618;23;20188;-75
2022/02/20 06:24:48;;;;;;;17.55;16.63;;;;;;;;;;6186817;23;20212;-76
2022/02/20 06:27:15;;;;;;;17.30;16.40;;;;;;;;;;6186495;23;20220;-76
2022/02/20 06:29:43;;;;;;;16.65;15.85;;;;;;;;;;6186893;23;20197;-76
2022/02/20 06:32:10;;;;;;;18.20;17.13;;;;;;;;;;6186294;23;20162;-75
2022/02/20 06:34:37;;;;;;;16.83;16.02;;;;;;;;;;6186227;23;20162;-76
2022/02/20 06:37:06;;;;;;;18.02;16.92;;;;;;;;;;6186276;23;20462;-76
2022/02/20 06:39:33;;;;;;;17.70;16.48;;;;;;;;;;6185617;23;20220;-76
2022/02/20 06:42:02;;;;;;;16.83;16.02;;;;;;;;;;6185910;23;20165;-75
2022/02/20 06:44:29;;;;;;;18.63;17.23;;;;;;;;;;6185950;23;20608;-76
2022/02/20 06:46:57;;;;;;;17.35;16.45;;;;;;;;;;6186493;23;20201;-76
2022/02/20 06:49:24;;;;;;;20.08;18.92;;;;;;;;;;6160367;23;20236;-76
2022/02/20 06:51:51;;;;;;;20.50;19.02;;;;;;;;;;6185652;23;20169;-76
2022/02/20 06:54:19;;;;;;;20.35;18.90;;;;;;;;;;6185845;23;20220;-76
2022/02/20 06:56:46;;;;;;;20.05;18.58;;;;;;;;;;6186007;23;20170;-76
2022/02/20 06:59:15;;;;;;;20.27;18.83;;;;;;;;;;6186224;23;20166;-76
2022/02/20 07:01:43;;;;;;;20.17;18.95;;;;;;;;;;6186271;23;20166;-76
2022/02/20 07:04:11;;;;;;;21.17;19.52;;;;;;;;;;6185888;23;20177;-76
2022/02/20 07:06:39;;;;;;;23.27;21.13;;;;;;;;;;6186273;23;20166;-83
2022/02/20 07:09:08;;;;;;;21.20;19.75;;;;;;;;;;6158969;23;20192;-84
2022/02/20 07:11:35;;;;;;;22.15;20.70;;;;;;;;;;6186341;23;20165;-82
2022/02/20 07:14:03;;;;;;;21.80;20.23;;;;;;;;;;6159812;23;20197;-79
2022/02/20 07:16:32;;;;;;;22.92;21.00;;;;;;;;;;6186241;23;20168;-78
2022/02/20 07:19:00;;;;;;;21.30;19.90;;;;;;;;;;6159171;23;20212;-79
2022/02/20 07:21:28;;;;;;;21.33;19.80;;;;;;;;;;6185732;23;20604;-79
2022/02/20 07:23:58;;;;;;;22.55;20.70;;;;;;;;;;6185557;23;20169;-80
2022/02/20 07:26:29;;;;;;;21.85;20.33;;;;;;;;;;6186138;23;20204;-80
2022/02/20 07:28:56;;;;;;;23.50;21.90;;;;;;;;;;6160456;23;20165;-80
2022/02/20 07:31:26;;;;;;;24.58;22.77;;;;;;;;;;6185920;23;20224;-87
2022/02/20 07:33:57;;;;;;;24.67;22.90;;;;;;;;;;6186387;23;20280;-80
2022/02/20 07:36:24;;;;;;;23.73;22.13;;;;;;;;;;6185653;23;20169;-80
2022/02/20 07:38:51;;;;;;;23.80;22.10;;;;;;;;;;6185490;23;20173;-81
2022/02/20 07:41:19;;;;;;;23.27;21.75;;;;;;;;;;6185819;23;20165;-80
2022/02/20 07:43:48;;;;;;;24.20;22.20;;;;;;;;;;6185737;23;20166;-80
2022/02/20 07:46:17;;;;;;;23.65;21.85;;;;;;;;;;6185676;23;20204;-80
2022/02/20 07:48:45;;;;;;;26.67;24.15;;;;;;;;;;6185083;23;20208;-80
2022/02/20 07:51:14;;;;;;;25.30;23.30;;;;;;;;;;6185437;23;20240;-80
2022/02/20 07:53:42;;;;;;;26.23;24.02;;;;;;;;;;6184846;23;20205;-81
2022/02/20 07:56:10;;;;;;;26.15;24.10;;;;;;;;;;6185807;23;20169;-81
2022/02/20 07:58:37;;;;;;;26.80;24.65;;;;;;;;;;6159452;23;20516;-81
2022/02/20 08:01:05;;;;;;;25.52;23.20;;;;;;;;;;6185471;23;20205;-81
2022/02/20 08:03:32;;;;;;;26.70;24.90;;;;;;;;;;6185274;23;20170;-80
2022/02/20 08:06:00;;;;;;;25.92;24.20;;;;;;;;;;6185747;23;20166;-80
2022/02/20 08:08:29;;;;;;;27.83;25.60;;;;;;;;;;6185593;23;20212;-80
2022/02/20 08:10:57;;;;;;;28.15;25.88;;;;;;;;;;6159232;23;20624;-80
2022/02/20 08:13:24;;;;;;;25.63;23.88;;;;;;;;;;6184867;23;20197;-80
2022/02/20 08:15:52;;;;;;;27.73;25.60;;;;;;;;;;6185520;23;20246;-80
2022/02/20 08:18:19;;;;;;;27.95;25.92;;;;;;;;;;6185523;23;20165;-80
2022/02/20 08:20:47;;;;;;;25.02;23.15;;;;;;;;;;6185262;23;20170;-80
2022/02/20 08:23:17;;;;;;;28.25;26.23;;;;;;;;;;6185471;23;20162;-79
2022/02/20 08:25:46;;;;;;;27.33;24.98;;;;;;;;;;6185336;23;20700;-80
2022/02/20 08:28:14;;;;;;;23.30;21.48;;;;;;;;;;6185063;23;20177;-81
2022/02/20 08:30:41;;;;;;;26.80;24.38;;;;;;;;;;6158708;23;20179;-81
2022/02/20 08:33:09;;;;;;;27.98;25.38;;;;;;;;;;6185579;23;20200;-80
2022/02/20 08:35:36;;;;;;;26.10;24.30;;;;;;;;;;6185125;23;20224;-80
2022/02/20 08:38:07;;;;;;;27.13;24.95;;;;;;;;;;6185191;23;20170;-80
2022/02/20 08:40:36;;;;;;;27.25;25.15;;;;;;;;;;6160134;23;20509;-79
2022/02/20 08:43:05;;;;;;;29.60;26.90;;;;;;;;;;6184465;23;20551;-79
2022/02/20 08:45:33;;;;;;;29.50;26.88;;;;;;;;;;6184863;23;20201;-80
2022/02/20 08:48:00;;;;;;;25.52;23.50;;;;;;;;;;6185313;23;20169;-80
2022/02/20 08:50:27;;;;;;;27.13;25.13;;;;;;;;;;6185736;23;20165;-80
2022/02/20 08:52:55;;;;;;;32.47;28.10;;;;;;;;;;6184888;23;20165;-81
2022/02/20 08:55:43;;;;;;;34.03;29.95;;;;;;;;;;6184733;23;20201;-80
2022/02/20 08:58:12;;;;;;;29.25;26.83;;;;;;;;;;6164429;23;20177;-81
2022/02/20 09:00:39;;;;;;;27.20;25.27;;;;;;;;;;6185044;23;20168;-80
2022/02/20 09:03:06;;;;;;;27.75;25.80;;;;;;;;;;6158811;23;20609;-80
2022/02/20 09:05:34;;;;;;;42.83;39.95;;;;;;;;;;6184870;23;20547;-80
2022/02/20 09:08:01;;;;;;;40.97;37.95;;;;;;;;;;6184765;23;20216;-80
2022/02/20 09:10:29;;;;;;;38.03;35.35;;;;;;;;;;6184826;23;20177;-80
2022/02/20 09:12:56;;;;;;;35.95;33.80;;;;;;;;;;6159176;23;20162;-80
2022/02/20 09:15:25;;;;;;;34.38;32.72;;;;;;;;;;6184689;23;20235;-80
2022/02/20 09:17:52;;;;;;;40.13;37.65;;;;;;;;;;6185247;23;20169;-80
2022/02/20 09:20:20;;;;;;;35.10;32.95;;;;;;;;;;6185248;23;20170;-80
2022/02/20 09:22:48;;;;;;;35.13;33.10;;;;;;;;;;6184927;23;20166;-83
2022/02/20 09:25:15;;;;;;;33.42;31.65;;;;;;;;;;6184859;23;20165;-81
2022/02/20 09:27:42;;;;;;;33.97;32.30;;;;;;;;;;6182682;23;20253;-79
2022/02/20 09:30:10;;;;;;;30.80;29.30;;;;;;;;;;6185005;23;20172;-80
2022/02/20 09:32:39;;;;;;;29.38;27.98;;;;;;;;;;6184310;23;20220;-81
2022/02/20 09:35:07;;;;;;;31.80;30.20;;;;;;;;;;6185334;23;20217;-80
2022/02/20 09:37:34;;;;;;;31.60;29.95;;;;;;;;;;6184692;23;20166;-80
2022/02/20 09:40:02;;;;;;;30.85;29.17;;;;;;;;;;6184785;23;20212;-81
2022/02/20 09:42:29;;;;;;;29.83;28.23;;;;;;;;;;6184681;23;20170;-80
2022/02/20 09:44:56;;;;;;;26.98;25.48;;;;;;;;;;6185065;23;20248;-81
2022/02/20 09:47:26;;;;;;;28.75;27.33;;;;;;;;;;6184761;23;20173;-82
2022/02/20 09:49:58;;;;;;;35.25;32.85;;;;;;;;;;6184448;23;20189;-81
2022/02/20 09:52:26;;;;;;;32.08;30.60;;;;;;;;;;6185522;23;20608;-81
2022/02/20 09:54:54;;;;;;;30.35;28.75;;;;;;;;;;6187140;23;20224;-91
2022/02/20 09:57:22;;;;;;;30.45;28.98;;;;;;;;;;6160238;23;20195;-84
2022/02/20 09:59:49;;;;;;;27.95;26.42;;;;;;;;;;6186743;23;20170;-82
2022/02/20 10:02:18;;;;;;;33.72;32.13;;;;;;;;;;6186243;23;20175;-85
2022/02/20 10:04:47;;;;;;;31.95;30.27;;;;;;;;;;6185615;23;20169;-88
2022/02/20 10:07:40;;;;;;;32.53;30.73;;;;;;;;;;6187022;23;20173;-84
2022/02/20 10:10:13;;;;;;;26.85;25.40;;;;;;;;;;6186975;23;20166;-83
2022/02/20 10:12:41;;;;;;;28.33;26.63;;;;;;;;;;6186654;23;20177;-83
2022/02/20 10:15:24;;;;;;;31.52;30.02;;;;;;;;;;6186559;23;20196;-81
2022/02/20 10:17:52;;;;;;;33.78;32.00;;;;;;;;;;6186404;23;20208;-84
2022/02/20 10:20:24;;;;;;;33.97;32.28;;;;;;;;;;6160319;23;20559;-82
2022/02/20 10:22:54;;;;;;;30.77;29.27;;;;;;;;;;6186148;23;20193;-85
2022/02/20 10:25:21;;;;;;;34.38;32.38;;;;;;;;;;6160240;23;20185;-84
2022/02/20 10:27:50;;;;;;;32.90;31.20;;;;;;;;;;6160676;23;20170;-83
2022/02/20 10:30:21;;;;;;;37.30;35.40;;;;;;;;;;6186960;23;20168;-85
2022/02/20 10:33:04;;;;;;;35.95;34.35;;;;;;;;;;6186724;23;20500;-82
2022/02/20 10:35:33;;;;;;;35.60;33.83;;;;;;;;;;6186641;23;20268;-84
2022/02/20 10:38:06;;;;;;;36.05;34.08;;;;;;;;;;6186524;23;20205;-83
2022/02/20 10:40:34;;;;;;;33.42;31.73;;;;;;;;;;6186031;23;20166;-84
2022/02/20 10:43:02;;;;;;;30.98;29.27;;;;;;;;;;6186418;23;20170;-85
2022/02/20 10:45:32;;;;;;;29.45;27.95;;;;;;;;;;6186903;23;20197;-85
2022/02/20 10:48:00;;;;;;;33.25;30.92;;;;;;;;;;6186259;23;20248;-84
2022/02/20 10:50:28;;;;;;;35.85;34.05;;;;;;;;;;6187051;23;20170;-85
2022/02/20 10:53:07;;;;;;;35.13;32.97;;;;;;;;;;6187110;23;20169;-87
2022/02/20 10:55:38;;;;;;;32.95;31.25;;;;;;;;;;6186320;23;20213;-84
2022/02/20 10:58:13;;;;;;;33.60;31.77;;;;;;;;;;6186040;23;20613;-84
2022/02/20 11:00:51;;;;;;;27.27;25.98;;;;;;;;;;6185691;23;20412;-87
2022/02/20 11:03:19;;;;;;;36.08;34.15;;;;;;;;;;6186642;23;20165;-83
2022/02/20 11:05:47;;;;;;;34.17;32.22;;;;;;;;;;6186364;23;20253;-85
2022/02/20 11:08:16;;;;;;;36.10;33.95;;;;;;;;;;6185755;23;20165;-81
2022/02/20 11:10:44;;;;;;;34.05;32.17;;;;;;;;;;6186045;23;20174;-81
2022/02/20 11:13:12;;;;;;;34.70;32.97;;;;;;;;;;6159391;23;20556;-80
2022/02/20 11:15:40;;;;;;;35.47;33.78;;;;;;;;;;6185618;23;20197;-83
2022/02/20 11:18:08;;;;;;;35.15;33.45;;;;;;;;;;6186221;23;20165;-83
2022/02/20 11:20:37;;;;;;;35.20;33.47;;;;;;;;;;6186057;23;20647;-84
2022/02/20 11:23:05;;;;;;;34.70;32.90;;;;;;;;;;6159984;23;20663;-81
2022/02/20 11:25:36;;;;;;;26.77;25.48;;;;;;;;;;6185470;23;20169;-80
2022/02/20 11:28:04;;;;;;;26.58;24.88;;;;;;;;;;6185499;23;20631;-82
2022/02/20 11:30:32;;;;;;;27.83;26.05;;;;;;;;;;6185571;23;20184;-81
2022/02/20 11:33:01;;;;;;;26.65;25.13;;;;;;;;;;6185630;23;20165;-81
2022/02/20 11:35:29;;;;;;;26.13;24.73;;;;;;;;;;6185319;23;20244;-80
2022/02/20 11:37:57;;;;;;;25.98;24.27;;;;;;;;;;6159958;23;20402;-81
2022/02/20 11:40:26;;;;;;;25.93;24.47;;;;;;;;;;6159512;23;20252;-81
2022/02/20 11:43:11;;;;;;;29.08;27.15;;;;;;;;;;6184840;23;20902;-88
2022/02/20 11:46:03;;;;;;;26.50;24.70;;;;;;;;;;6185651;23;20201;-79
2022/02/20 11:48:30;;;;;;;26.67;25.00;;;;;;;;;;6185371;23;20383;-81
2022/02/20 11:51:12;;;;;;;24.60;23.27;;;;;;;;;;6160070;23;20162;-81
2022/02/20 11:53:39;;;;;;;26.23;24.38;;;;;;;;;;6185435;23;20166;-81
2022/02/20 11:56:08;;;;;;;26.00;24.48;;;;;;;;;;6159928;23;20197;-81
2022/02/20 11:58:36;;;;;;;24.55;23.05;;;;;;;;;;6185666;23;20173;-81
2022/02/20 12:01:26;;;;;;;23.55;22.25;;;;;;;;;;6185776;23;20184;-82
2022/02/20 12:04:07;;;;;;;23.45;22.25;;;;;;;;;;6158852;23;20544;-82
2022/02/20 12:06:41;;;;;;;23.13;21.93;;;;;;;;;;6185579;23;20177;-82
2022/02/20 12:09:24;;;;;;;40.40;38.20;;;;;;;;;;6185204;23;20388;-82
2022/02/20 12:11:53;;;;;;;38.70;36.88;;;;;;;;;;6185298;23;20367;-82
2022/02/20 12:14:22;;;;;;;38.83;36.47;;;;;;;;;;6185033;23;20189;-82
2022/02/20 12:16:52;;;;;;;26.20;24.63;;;;;;;;;;6184642;23;20165;-82
2022/02/20 12:19:21;;;;;;;26.20;24.67;;;;;;;;;;6159055;23;20779;-82
2022/02/20 12:21:53;;;;;;;26.20;24.17;;;;;;;;;;6134461;23;20628;-82
2022/02/20 12:24:21;;;;;;;39.65;37.35;;;;;;;;;;6185853;23;20389;-80
2022/02/20 12:26:55;;;;;;;33.70;32.10;;;;;;;;;;6185322;23;20170;-80
2022/02/20 12:29:24;;;;;;;37.72;35.83;;;;;;;;;;6185385;23;20170;-81
2022/02/20 12:32:11;;;;;;;37.58;35.10;;;;;;;;;;6185315;23;20248;-81
2022/02/20 12:34:52;;;;;;;27.50;25.60;;;;;;;;;;6184741;23;20260;-81
2022/02/20 12:37:20;;;;;;;26.70;24.80;;;;;;;;;;6185099;23;20523;-80
2022/02/20 12:39:52;;;;;;;27.10;25.30;;;;;;;;;;6184991;23;20780;-81
2022/02/20 12:42:20;;;;;;;25.85;23.75;;;;;;;;;;6184501;23;20775;-81
2022/02/20 12:44:49;;;;;;;38.22;35.20;;;;;;;;;;6158286;23;20228;-81
2022/02/20 12:47:18;;;;;;;36.97;34.47;;;;;;;;;;6184712;23;20165;-81
2022/02/20 12:49:53;;;;;;;38.78;35.72;;;;;;;;;;6184914;23;20208;-80
2022/02/20 12:52:21;;;;;;;24.08;22.33;;;;;;;;;;6184931;23;20600;-80
2022/02/20 12:54:55;;;;;;;25.67;24.20;;;;;;;;;;6158561;23;20214;-79
2022/02/20 12:57:25;;;;;;;24.67;23.00;;;;;;;;;;6184796;23;20201;-80
2022/02/20 12:59:56;;;;;;;24.63;23.02;;;;;;;;;;6184705;23;20409;-81
2022/02/20 13:02:35;;;;;;;23.27;21.88;;;;;;;;;;6184902;23;20204;-80
2022/02/20 13:05:04;;;;;;;25.83;23.75;;;;;;;;;;6185107;23;20212;-81
2022/02/20 13:07:37;;;;;;;26.50;24.58;;;;;;;;;;6185407;23;20169;-80
2022/02/20 13:10:05;;;;;;;35.90;33.87;;;;;;;;;;6158978;23;20173;-81
2022/02/20 13:12:32;;;;;;;35.30;32.90;;;;;;;;;;6184568;23;20742;-81
2022/02/20 13:15:00;;;;;;;33.15;30.90;;;;;;;;;;6158502;23;20197;-80
2022/02/20 13:17:44;;;;;;;36.22;33.80;;;;;;;;;;6184697;23;20169;-80
2022/02/20 13:20:27;;;;;;;37.75;35.33;;;;;;;;;;6185310;23;20170;-81
2022/02/20 13:22:55;;;;;;;37.65;34.80;;;;;;;;;;6185021;23;20162;-81
2022/02/20 13:25:23;;;;;;;36.97;34.42;;;;;;;;;;6184478;23;20616;-81
2022/02/20 13:27:51;;;;;;;34.17;31.63;;;;;;;;;;6159774;23;20181;-82
2022/02/20 13:30:28;;;;;;;36.23;34.17;;;;;;;;;;6187120;23;20404;-78
2022/02/20 13:33:06;;;;;;;37.95;35.67;;;;;;;;;;6160975;23;20397;-80
2022/02/20 13:35:34;;;;;;;34.35;32.45;;;;;;;;;;6186762;23;20197;-80
2022/02/20 13:38:03;;;;;;;34.92;32.65;;;;;;;;;;6186433;23;20682;-79
2022/02/20 13:40:31;;;;;;;36.73;34.83;;;;;;;;;;6187102;23;20305;-83
2022/02/20 13:43:05;;;;;;;36.50;34.50;;;;;;;;;;6187052;23;20426;-83
2022/02/20 13:45:33;;;;;;;37.20;35.30;;;;;;;;;;6161165;23;20434;-83
2022/02/20 13:48:02;;;;;;;37.88;35.78;;;;;;;;;;6186955;23;20609;-89
2022/02/20 13:50:29;;;;;;;37.45;35.45;;;;;;;;;;6187459;23;20535;-86
2022/02/20 13:52:57;;;;;;;40.93;38.17;;;;;;;;;;6160931;23;20182;-84
2022/02/20 13:55:27;;;;;;;36.47;34.60;;;;;;;;;;6186455;23;20452;-82
2022/02/20 13:57:55;;;;;;;35.72;33.70;;;;;;;;;;6185766;23;20256;-77
2022/02/20 14:00:23;;;;;;;38.60;35.95;;;;;;;;;;6186259;23;20201;-79
2022/02/20 14:02:51;;;;;;;37.07;34.67;;;;;;;;;;6186588;23;20170;-77
2022/02/20 14:05:25;;;;;;;34.03;32.20;;;;;;;;;;6186024;23;20379;-77
2022/02/20 14:08:01;;;;;;;36.37;33.67;;;;;;;;;;6186593;23;20452;-78
2022/02/20 14:10:28;;;;;;;35.53;33.60;;;;;;;;;;6186039;23;20838;-77
2022/02/20 14:12:56;;;;;;;38.27;35.77;;;;;;;;;;6186119;23;20853;-79
2022/02/20 14:15:29;;;;;;;35.23;33.10;;;;;;;;;;6186603;23;20480;-80
2022/02/20 14:17:59;;;;;;;35.37;33.73;;;;;;;;;;6186011;23;20405;-79
2022/02/20 14:20:29;;;;;;;33.80;31.77;;;;;;;;;;6186541;23;20864;-77
2022/02/20 14:22:57;;;;;;;36.15;34.25;;;;;;;;;;6186062;23;20555;-77
2022/02/20 14:25:24;;;;;;;28.47;26.80;;;;;;;;;;6186286;23;20231;-78